El Paso International Airport El Paso US
ICAO: KELP
IATA: ELP
Category: Medium
Scheduled Services: Yes

Elevation: 3959 ft
TransAlt. 18000 ft.

Airport Communications:
APP:119.15
ATIS:120
CLNC DEL:125
DEP:119.15
GND:121.9
ALBUQUERQUE RDO:122.4
TWR:118.3
UNICOM:122.95

KELP Zoom In..

If you have problems with the map follow the link
https://www.worldairports.se/pages/airport.php?
ICAO=KELP

Runways:

(A) RW 04 length 12020 ft width 150 ft
LOC 111.50 / hdg 39

(B) RW 08L length 5499 ft width 75 ft
LOC 111.50 / hdg 77

(C) RW 08R length 9027 ft width 150 ft
LOC 111.50 / hdg 82

(D) RW 22 length 12020 ft width 150 ft
ILS 111.50 / hdg 219

(E) RW 26L length 9027 ft width 150 ft
LOC 111.50 / hdg 262

(F) RW 26R length 5499 ft width 75 ft
LOC 111.50 / hdg 257

Location; KELP
Day. 23 / Time. 17.51 Zulu
* Altimeter: 30.12
* Temperature: 19° c. 66.2°f.
* Wind from: 120° Speed 08 kn.
Dewpoint: 13° c.
Visibility: 10 Statute Miles.
Clouds: Broken 2500 ft.
Clouds: Overcast 4000 ft.

KELP 231751Z 12008KT 10SM BKN025 OVC040 19/13 A3012 RMK AO2 RAB08E17 SLP150 VCSH SW-NW MTNS PTLY OBSCD W-NW CLD TPG MTNS SW-NW P0000 60000 T01890133 10194 20167 50000


Wind From 120°
Speed 08 kn.

 
 
jpsmedia.com for Web Design worldairports.se 2018   terms of use